ADVERTISEMENT

iOS app on App Store Android app on Google Play

2017 \ Turkey Trot Los Angeles - November 23, 2017

Notes Pages Download Filter By
  1 2 3 4 5 6 7 8 9 10 11 12 13 14 [15] 16 17 18 19 20 21 22 23 24 25 26 27 28 29 30 31




Keyword Exact  
Division

Bib Division Last Name First Name Division Place Total Time Overall City State
2136 16-19 Female Ronan Sophia 31 00:39:10 1401 Bend OR
2399 40-44 Female Chavez Salina 77 00:39:10 1402 Campbell CA
1737 25-29 Female Diaz Alisha 138 00:39:10 1403 Hacienda Heights CA
4112 25-29 Female Celestial Rosa Mae 139 00:39:14 1404 Monterey Park CA
2089 10-11 Female Jones Deena 14 00:39:14 1405 Inglewood CA
2087 45-49 Female Blades Sheryl 44 00:39:15 1406 Inglewood CA
3535 20-24 Male Sowah Welbeck 42 00:39:15 1407 Los Angeles CA
3760 50-54 Female Millan Donna 26 00:39:15 1408 Glendora CA
2923 20-24 Female Judan Daphne Marie 64 00:39:15 1409 Carson CA
1114 35-39 Female Medina America 100 00:39:16 1410 Los Angeles CA
5969 35-39 Female Anthony Ann-robin 101 00:39:16 1411 Scottsdale AZ
2533 25-29 Male Huang Joseph 120 00:39:16 1412 Los Angeles CA
3565 25-29 Female Fuentes Socorro 140 00:39:17 1413 Los Angeles CA
1357 40-44 Male Acosta Rosario 70 00:39:21 1414 Pacoima CA
2088 40-44 Female Ortega Alicia 78 00:39:22 1415 Los Angeles CA
2335 30-34 Male Daniel Keith 98 00:39:22 1416 Los Angeles CA
1120 1-9 Female Martinez Leanna 14 00:39:24 1417 Rosemead CA
1796 45-49 Male Valencia Martin 64 00:39:24 1418 Los Angeles CA
1122 35-39 Female Martinez Maria 102 00:39:26 1419 Rosemead CA
2334 35-39 Female Daniel Abrey 103 00:39:26 1420 Los Angeles CA
6130 30-34 Female Woolridge Jan 140 00:39:26 1421 San Pedro CA
6360 10-11 Male Ramirez Fabio 24 00:39:30 1422 Bell Gardens CA
4203 20-24 Female Hester Whitney 65 00:39:30 1423 Tarzana CA
2978 25-29 Female Perez Stephanie 141 00:39:32 1424 Los Angeles CA
2938 25-29 Female Palafox Veronica 142 00:39:32 1425 Inglewood CA
3046 35-39 Female Nguyen Quynh 104 00:39:33 1426 Anaheim CA
1675 25-29 Female Cervantes Olivia 143 00:39:34 1427 Maywood CA
2428 50-54 Male Mcadam David 37 00:39:34 1428 Burlingame CA
3375 40-44 Female Dosek Tyneda 79 00:39:35 1429 Chino CA
1657 35-39 Female Sanchez Ana 105 00:39:36 1430 Los Angeles CA
3390 45-49 Male Laird Kevin 65 00:39:36 1431 Los Angeles CA
2842 60-64 Male Slegers Fred 17 00:39:36 1432 Miller NE
4055 35-39 Female Feliciano Lupe 106 00:39:37 1433 Long Beach CA
2727 30-34 Female Hendler Maya 141 00:39:37 1434 Valley Village CA
3210 20-24 Male Nijem Adam 43 00:39:38 1435 Concord CA
3211 20-24 Female Ruiz Karina 66 00:39:38 1436 Concord CA
1206 20-24 Female Kuang Daisy 67 00:39:39 1437 Temple City CA
3959 20-24 Female Millan Kelly 68 00:39:39 1438 Glendora CA
3763 25-29 Male Valloza Michael 121 00:39:40 1439 San Dimas CA
1602 35-39 Female Haynes Patricia 107 00:39:40 1440 Glendale CA
1800 30-34 Female Cruz-kuang Cynthia 142 00:39:41 1441 West Covina CA
2414 30-34 Female Kong Meagan 143 00:39:42 1442 Los Angeles CA
1475 35-39 Female Wilbur Kimberly 108 00:39:42 1443 Azusa CA
2249 30-34 Female Sewell Monica 144 00:39:43 1444 Ofallon IL
1901 30-34 Female Meyler Megan 145 00:39:43 1445 Dallas TX
1060 16-19 Female Ayon Samantha 32 00:39:44 1446 San Fernando CA
1396 55-59 Female Fountaine Darlene 20 00:39:44 1447 Los Angeles CA
1366 20-24 Female Perry Rachel 69 00:39:44 1448 Porter Ranch CA
1774 55-59 Female Kisling Connie 21 00:39:45 1449 Greensboro NC
1577 40-44 Female Gutierrez Carol 80 00:39:46 1450 Norwalk CA
3560 16-19 Female Lopez Giselle 33 00:39:46 1451 Norwalk CA
2874 16-19 Female Perry Jenna 34 00:39:46 1452 Porter Ranch CA
3251 35-39 Male Beyerle Timothy 105 00:39:50 1453 Los Angeles CA
3467 30-34 Female Stein Brea 146 00:39:50 1454 ST. MN
1762 40-44 Female Marzan Lalaine 81 00:39:51 1455 Los Angeles CA
3381 45-49 Female Craig Chisato 45 00:39:53 1456 Los Angeles CA
1886 55-59 Female Rivas Reyna 22 00:39:53 1457 Los Angeles CA
2169 30-34 Male Espinoza Fabian 99 00:39:53 1458 Downey CA
4032 40-44 Male Suquilanda Edgar 71 00:39:54 1459 Pasadena CA
2945 35-39 Male Rejano David 106 00:39:55 1460 Alhambra CA
2792 30-34 Female Yilpet Joy 147 00:39:55 1461 Downey CA
3148 25-29 Female Lazcano Nancy 144 00:39:55 1462 Huntington Park CA
3464 50-54 Female Balding Mary K 27 00:39:55 1463 Redondo Beach CA
2590 40-44 Male Juarez Ronald 72 00:39:56 1464 Los Angeles CA
3482 55-59 Female Fort Deb 23 00:39:56 1465 Hawthorne CA
2351 30-34 Female Montesmateo Cristina 148 00:39:56 1466 Alhambra CA
1205 30-34 Female Aldana Sheniffer 149 00:39:56 1467 Los Angeles CA
3318 20-24 Male Lim Oliver 44 00:39:57 1468 Rllng Hls Est CA
4213 12-13 Male Garcia Luke 20 00:39:57 1469 Pomona CA
3410 45-49 Male Roberts Kevin 66 00:39:59 1470 Los Angeles CA
1658 25-29 Female De La Rosa Maricela 145 00:39:59 1471 Huntington Pk CA
1854 35-39 Female Pandy Carleen 109 00:40:01 1472 Los Angeles CA
1836 40-44 Male Marfori Paolo 73 00:40:01 1473 N Hollywood CA
3324 35-39 Male Sofrin Will 107 00:40:01 1474 Sherman Oaks CA
4239 30-34 Female Hazarian Lauren 150 00:40:02 1475 Los Angeles CA
3315 35-39 Female Valiente Mary Ann 110 00:40:03 1476 Rowland Heights CA
2201 10-11 Male Salazar Elijah 25 00:40:03 1477 Downey CA
3325 35-39 Female Mcfarren Alicia 111 00:40:05 1478 Sherman Oaks CA
2202 50-54 Female Gonzalez Sonia 28 00:40:05 1479 Downey CA
3754 14-15 Male Olona Alyssa 28 00:40:06 1480 Placentia CA
3753 45-49 Male Olona Brian 67 00:40:06 1481 Placentia CA
2850 16-19 Female Rodriguez Ivy 35 00:40:07 1482 Fresno CA
1905 25-29 Male Danna Chris 122 00:40:07 1483 Los Angeles CA
1375 30-34 Female Soriano Cynthia 151 00:40:07 1484 Lakewood CA
2891 30-34 Female Coronel Dalia 152 00:40:07 1485 Los Angeles CA
2659 20-24 Male Elliott Austin 45 00:40:08 1486 N Hollywood CA
3141 55-59 Female Mapes Jacqueline 24 00:40:09 1487 Los Angeles CA
2658 30-34 Female Seda Christene 153 00:40:09 1488 N Hollywood CA
3442 25-29 Female Torrez Kaylet 146 00:40:11 1489 Los Angeles CA
1064 30-34 Male Styffe Steven 100 00:40:12 1490 Los Angeles CA
1429 16-19 Male Navarro Hector 41 00:40:13 1491 Inglewood CA
2675 40-44 Female Maestas Veronica 82 00:40:14 1492 Pico Rivera CA
2834 30-34 Male Rodriguez Jorge 101 00:40:14 1493 Carson CA
2619 20-24 Female Ortega Diana 70 00:40:15 1494 Los Angeles CA
1471 16-19 Female Guerrero Annette 36 00:40:15 1495 San Antonio TX
2513 30-34 Female N Toliver Tiffane 154 00:40:15 1496 Inglewood CA
3204 25-29 Female Bitton Stephanie 147 00:40:17 1497 Valley Village CA
1062 1-9 Male Olaes Theodore-john 22 00:40:17 1498 Burbank CA
2816 50-54 Female Watson Van Der Plas Shirl 29 00:40:17 1499 Los Angeles CA
1063 40-44 Male Olaes Ermyr 74 00:40:17 1500 Burbank CA
Notes Pages Download Filter By
  1 2 3 4 5 6 7 8 9 10 11 12 13 14




Keyword Exact  
Division

Bib Division Last Name First Name Division Place Total Time Overall City State
Not Found